createdAt,value
2019-02-22T00:00:34.704Z,39.60
2019-02-22T00:05:41.686Z,38.63
2019-02-22T00:10:47.622Z,37.37
2019-02-22T00:15:55.003Z,36.93
2019-02-22T00:21:02.340Z,36.97
2019-02-22T00:26:10.918Z,37.60
2019-02-22T00:31:16.128Z,37.60
2019-02-22T00:36:22.085Z,38.17
2019-02-22T00:41:28.080Z,37.83
2019-02-22T00:46:34.072Z,36.53
2019-02-22T00:51:40.087Z,39.60
2019-02-22T00:56:46.022Z,36.17
2019-02-22T01:01:51.961Z,31.10
2019-02-22T01:06:58.024Z,30.47
2019-02-22T01:12:03.990Z,30.23
2019-02-22T01:17:09.934Z,31.37
2019-02-22T01:22:17.094Z,32.20
2019-02-22T01:27:23.238Z,30.40
2019-02-22T01:32:29.249Z,32.43
2019-02-22T01:37:35.119Z,33.00
2019-02-22T01:42:41.128Z,31.57
2019-02-22T01:47:47.587Z,29.93
2019-02-22T01:52:53.796Z,30.30
2019-02-22T01:57:59.674Z,29.13
2019-02-22T02:03:05.671Z,28.77
2019-02-22T02:08:11.692Z,28.30
2019-02-22T02:13:17.871Z,26.73
2019-02-22T02:18:23.894Z,27.63
2019-02-22T02:23:29.856Z,27.60
2019-02-22T02:28:36.777Z,29.70
2019-02-22T02:33:43.722Z,28.07
2019-02-22T02:38:50.010Z,28.17
2019-02-22T02:43:57.549Z,30.80
2019-02-22T02:49:03.598Z,31.97
2019-02-22T02:54:09.737Z,30.43
2019-02-22T02:59:15.667Z,30.10
2019-02-22T03:04:21.643Z,28.73
2019-02-22T03:09:27.734Z,29.00
2019-02-22T03:14:35.407Z,28.57
2019-02-22T03:19:42.558Z,28.10
2019-02-22T03:24:48.462Z,27.13
2019-02-22T03:29:54.394Z,26.97
2019-02-22T03:35:00.527Z,27.60
2019-02-22T03:40:06.660Z,27.73
2019-02-22T03:45:12.735Z,26.70
2019-02-22T03:50:18.764Z,27.43
2019-02-22T03:55:24.725Z,26.80
2019-02-22T04:00:31.037Z,28.67
2019-02-22T04:05:37.173Z,28.77
2019-02-22T04:10:43.044Z,29.07
2019-02-22T04:15:50.032Z,28.30
2019-02-22T04:20:56.057Z,27.97
2019-02-22T04:26:02.070Z,28.20
2019-02-22T04:31:08.141Z,28.83
2019-02-22T04:36:15.402Z,30.07
2019-02-22T04:41:21.622Z,27.37
2019-02-22T04:46:30.539Z,27.03
2019-02-22T04:51:36.659Z,24.53
2019-02-22T04:56:42.788Z,23.77
2019-02-22T05:01:48.644Z,23.73
2019-02-22T05:06:54.640Z,25.57
2019-02-22T05:12:10.472Z,26.90
2019-02-22T05:17:08.265Z,26.47
2019-02-22T05:22:14.261Z,26.20
2019-02-22T05:27:20.267Z,26.57
2019-02-22T05:32:26.220Z,27.17
2019-02-22T05:37:32.533Z,25.47
2019-02-22T05:42:40.293Z,27.53
2019-02-22T05:47:46.897Z,27.83
2019-02-22T05:52:52.781Z,27.57
2019-02-22T05:57:58.721Z,27.30
2019-02-22T06:03:04.672Z,27.20
2019-02-22T06:08:11.836Z,27.23
2019-02-22T06:13:18.177Z,25.67
2019-02-22T06:18:24.211Z,25.40
2019-02-22T06:23:30.150Z,26.40
2019-02-22T06:28:36.228Z,25.33
2019-02-22T06:33:43.056Z,24.70
2019-02-22T06:38:50.123Z,23.90
2019-02-22T06:43:56.180Z,22.87
2019-02-22T06:49:03.318Z,23.83
2019-02-22T06:54:09.771Z,24.60
2019-02-22T06:59:15.713Z,24.33
2019-02-22T07:04:21.709Z,24.17
2019-02-22T07:09:28.213Z,26.40
2019-02-22T07:14:34.337Z,27.37
2019-02-22T07:19:40.197Z,27.50
2019-02-22T07:24:46.146Z,26.70
2019-02-22T07:29:52.222Z,27.00
2019-02-22T07:34:58.290Z,27.57
2019-02-22T07:40:04.404Z,29.43
2019-02-22T07:45:12.162Z,29.10
2019-02-22T07:50:18.190Z,32.23
2019-02-22T07:55:24.215Z,32.20
2019-02-22T08:00:32.590Z,31.03
2019-02-22T08:05:38.608Z,28.83
2019-02-22T08:10:44.636Z,28.93
2019-02-22T08:15:50.597Z,29.00
2019-02-22T08:20:56.457Z,28.27
2019-02-22T08:26:02.429Z,28.87
2019-02-22T08:31:08.587Z,27.57
2019-02-22T08:36:14.613Z,26.63
2019-02-22T08:41:21.349Z,26.83
2019-02-22T08:46:27.377Z,27.03
2019-02-22T08:51:33.646Z,27.20
2019-02-22T08:56:39.662Z,27.13
2019-02-22T09:01:45.793Z,27.37
2019-02-22T09:06:52.505Z,27.47
2019-02-22T09:11:58.835Z,26.87
2019-02-22T09:17:04.851Z,26.90
2019-02-22T09:22:19.774Z,26.33
2019-02-22T09:27:18.733Z,25.93
2019-02-22T09:32:24.684Z,23.53
2019-02-22T09:37:30.841Z,23.67
2019-02-22T09:42:36.981Z,25.60
2019-02-22T09:47:43.023Z,24.67
2019-02-22T09:52:49.053Z,25.23
2019-02-22T09:57:55.017Z,24.80
2019-02-22T10:03:00.921Z,24.50
2019-02-22T10:08:06.862Z,26.10
2019-02-22T10:13:12.894Z,26.60
2019-02-22T10:18:18.809Z,26.93
2019-02-22T10:23:24.854Z,25.87
2019-02-22T10:28:30.784Z,29.40
2019-02-22T10:33:37.093Z,27.80
2019-02-22T10:38:43.092Z,28.73
2019-02-22T10:43:49.222Z,28.73
2019-02-22T10:48:55.250Z,27.80
2019-02-22T10:54:01.358Z,28.67
2019-02-22T10:59:07.460Z,28.90
2019-02-22T11:04:13.501Z,28.70
2019-02-22T11:09:19.980Z,30.23
2019-02-22T11:14:29.121Z,29.33
2019-02-22T11:19:33.761Z,31.10
2019-02-22T11:24:39.760Z,31.67
2019-02-22T11:29:45.931Z,33.73
2019-02-22T11:34:52.228Z,33.33
2019-02-22T11:39:58.122Z,34.00
2019-02-22T11:45:05.912Z,32.37
2019-02-22T11:50:13.264Z,32.30
2019-02-22T11:55:19.665Z,29.93
2019-02-22T12:00:26.288Z,30.23
2019-02-22T12:05:32.352Z,32.87
2019-02-22T12:10:39.458Z,31.47
2019-02-22T12:15:45.604Z,37.73
2019-02-22T12:20:51.677Z,33.97
2019-02-22T12:25:57.789Z,33.67
2019-02-22T12:31:03.911Z,33.27
2019-02-22T12:36:10.088Z,35.00
2019-02-22T12:41:16.163Z,44.37
2019-02-22T12:46:22.374Z,34.33
2019-02-22T12:51:28.615Z,33.57
2019-02-22T13:01:42.991Z,38.47
2019-02-22T13:06:49.130Z,35.73
2019-02-22T13:11:55.223Z,40.93
2019-02-22T13:17:01.286Z,33.93
2019-02-22T13:22:07.770Z,35.53
2019-02-22T13:27:13.950Z,31.87
2019-02-22T13:32:20.018Z,31.93
2019-02-22T13:37:26.169Z,33.03
2019-02-22T13:42:32.358Z,29.27
2019-02-22T13:47:38.539Z,25.63
2019-02-22T13:52:44.812Z,25.80
2019-02-22T13:57:52.829Z,26.33
2019-02-22T14:02:58.960Z,27.33
2019-02-22T14:08:05.333Z,27.27
2019-02-22T14:13:11.821Z,27.67
2019-02-22T14:18:17.964Z,28.30
2019-02-22T14:23:24.134Z,28.67
2019-02-22T14:28:30.217Z,27.50
2019-02-22T15:24:29.489Z,20.17
2019-02-22T15:29:35.597Z,19.90
2019-02-22T15:34:41.901Z,15.30
2019-02-22T15:39:48.109Z,16.37
2019-02-22T15:44:56.158Z,14.23
2019-02-22T15:50:02.283Z,11.93
2019-02-22T15:55:10.412Z,12.47
2019-02-22T16:00:20.774Z,12.00
2019-02-22T16:05:34.572Z,14.00
2019-02-22T16:10:40.566Z,13.10
2019-02-22T16:15:46.616Z,16.10
2019-02-22T16:20:52.582Z,22.23
2019-02-22T16:25:58.632Z,23.17
2019-02-22T16:31:04.818Z,24.30
2019-02-22T16:36:10.738Z,26.57
2019-02-22T16:41:16.688Z,28.93
2019-02-22T16:46:34.473Z,25.87
2019-02-22T16:51:33.019Z,22.60
2019-02-22T16:56:39.065Z,22.67
2019-02-22T17:01:45.276Z,23.67
2019-02-22T17:06:51.693Z,21.70
2019-02-22T17:12:06.098Z,19.07
2019-02-22T17:17:06.126Z,18.90
2019-02-22T17:22:12.277Z,18.10
2019-02-22T17:27:18.530Z,16.03
2019-02-22T17:32:24.681Z,13.13
2019-02-22T17:37:30.786Z,13.47
2019-02-22T17:42:36.857Z,12.13
2019-02-22T17:47:44.014Z,11.47
2019-02-22T17:52:50.074Z,10.13
2019-02-22T17:57:56.102Z,10.80
2019-02-22T18:03:02.206Z,9.47
2019-02-22T18:08:08.554Z,8.87
2019-02-22T18:13:15.875Z,8.73
2019-02-22T18:18:22.990Z,7.27
2019-02-22T18:23:28.955Z,5.23
2019-02-22T18:28:35.030Z,6.30
2019-02-22T18:33:41.076Z,8.90
2019-02-22T18:38:47.070Z,10.93
2019-02-22T18:43:53.189Z,15.60
2019-02-22T18:48:59.115Z,15.93
2019-02-22T18:54:05.386Z,18.67
2019-02-22T18:59:11.716Z,20.70
2019-02-22T19:04:19.802Z,21.77
2019-02-22T19:09:26.971Z,20.63
2019-02-22T19:14:33.089Z,21.90
2019-02-22T19:19:39.136Z,23.97
2019-02-22T19:24:47.458Z,23.50
2019-02-22T19:29:53.584Z,23.47
2019-02-22T19:34:59.690Z,24.33
2019-02-22T19:40:08.079Z,25.67
2019-02-22T19:45:14.209Z,25.60
2019-02-22T19:50:20.232Z,25.90
2019-02-22T19:55:26.312Z,26.20
2019-02-22T20:00:32.412Z,25.77
2019-02-22T20:05:38.485Z,25.80
2019-02-22T20:10:44.633Z,25.43
2019-02-22T20:15:50.650Z,25.03
2019-02-22T20:20:56.705Z,26.50
2019-02-22T20:26:02.787Z,25.90
2019-02-22T20:31:19.591Z,25.27
2019-02-22T20:36:16.477Z,25.63
2019-02-22T20:41:24.463Z,26.37
2019-02-22T20:46:30.516Z,25.10
2019-02-22T20:51:36.547Z,26.30
2019-02-22T20:56:42.731Z,25.97
2019-02-22T21:01:48.692Z,24.63
2019-02-22T21:06:54.785Z,25.37
2019-02-22T21:12:00.916Z,26.00
2019-02-22T21:17:07.071Z,24.87
2019-02-22T21:22:13.772Z,24.30
2019-02-22T21:27:20.101Z,23.27
2019-02-22T21:32:26.580Z,22.23
2019-02-22T21:37:32.862Z,22.40
2019-02-22T21:42:38.869Z,21.87
2019-02-22T21:47:54.166Z,23.13
2019-02-22T21:52:53.877Z,21.83
2019-02-22T21:58:00.028Z,22.90
2019-02-22T22:03:06.063Z,23.07
2019-02-22T22:08:12.116Z,23.73
2019-02-22T22:13:18.356Z,24.60
2019-02-22T22:18:24.489Z,23.47
2019-02-22T22:23:30.788Z,23.97
2019-02-22T22:28:37.057Z,23.17
2019-02-22T22:33:43.097Z,23.47
2019-02-22T22:38:49.015Z,24.23
2019-02-22T22:43:55.867Z,24.43
2019-02-22T22:49:01.938Z,24.77
2019-02-22T22:54:07.984Z,25.87
2019-02-22T22:59:14.070Z,25.73
2019-02-22T23:04:20.051Z,26.33
2019-02-22T23:09:26.725Z,27.63
2019-02-22T23:14:32.848Z,25.97
2019-02-22T23:19:38.909Z,26.70
2019-02-22T23:24:45.001Z,26.07
2019-02-22T23:29:52.649Z,25.73
2019-02-22T23:34:58.756Z,27.57
2019-02-22T23:40:04.998Z,26.17
2019-02-22T23:45:12.568Z,25.07
2019-02-22T23:50:19.039Z,27.37
2019-02-22T23:55:25.009Z,26.90
